createdAt,value
2018-08-18T04:00:31.940Z,88.10
2018-08-18T04:01:31.916Z,88.00
2018-08-18T04:02:31.881Z,88.10
2018-08-18T04:03:31.898Z,87.80
2018-08-18T04:04:31.874Z,88.00
2018-08-18T04:05:31.856Z,87.90
2018-08-18T04:06:31.841Z,87.90
2018-08-18T04:07:31.833Z,87.90
2018-08-18T04:08:31.820Z,87.90
2018-08-18T04:09:31.831Z,88.10
2018-08-18T04:10:31.799Z,87.40
2018-08-18T04:11:31.781Z,88.10
2018-08-18T04:12:31.774Z,88.00
2018-08-18T04:13:31.790Z,87.90
2018-08-18T04:14:31.765Z,87.90
2018-08-18T04:15:31.750Z,87.90
2018-08-18T04:16:31.725Z,87.80
2018-08-18T04:17:31.713Z,87.90
2018-08-18T04:18:31.706Z,87.80
2018-08-18T04:19:31.702Z,87.80
2018-08-18T04:20:31.688Z,88.00
2018-08-18T04:21:31.675Z,87.70
2018-08-18T04:22:31.666Z,88.00
2018-08-18T04:23:31.651Z,88.10
2018-08-18T04:24:31.652Z,87.70
2018-08-18T04:25:31.629Z,88.00
2018-08-18T04:26:31.620Z,88.00
2018-08-18T04:27:31.610Z,87.70
2018-08-18T04:28:31.596Z,88.65
2018-08-18T04:29:31.609Z,87.80
2018-08-18T04:30:31.570Z,88.70
2018-08-18T04:31:31.562Z,87.60
2018-08-18T04:32:31.553Z,87.90
2018-08-18T04:33:31.542Z,87.49
2018-08-18T04:34:31.530Z,87.40
2018-08-18T04:35:31.529Z,87.09
2018-08-18T04:36:31.511Z,87.49
2018-08-18T04:37:31.497Z,87.49
2018-08-18T04:38:31.484Z,86.49
2018-08-18T04:39:31.477Z,87.40
2018-08-18T04:40:31.475Z,87.70
2018-08-18T04:41:31.452Z,87.90
2018-08-18T04:42:31.464Z,87.80
2018-08-18T04:43:31.429Z,87.70
2018-08-18T04:44:31.421Z,87.63
2018-08-18T04:45:31.434Z,87.60
2018-08-18T04:46:31.396Z,88.14
2018-08-18T04:47:31.384Z,87.94
2018-08-18T04:48:31.376Z,87.74
2018-08-18T04:49:31.380Z,88.00
2018-08-18T04:50:31.402Z,88.00
2018-08-18T04:51:31.353Z,87.84
2018-08-18T04:52:31.330Z,87.94
2018-08-18T04:53:31.322Z,88.45
2018-08-18T04:54:31.312Z,87.80
2018-08-18T04:55:31.307Z,87.80
2018-08-18T04:56:31.286Z,87.70
2018-08-18T04:57:31.272Z,88.00
2018-08-18T04:58:31.272Z,87.90
2018-08-18T04:59:31.313Z,88.00
2018-08-18T05:00:31.254Z,87.90
2018-08-18T05:01:31.235Z,87.49
2018-08-18T05:02:31.220Z,87.94
2018-08-18T05:03:31.313Z,88.24
2018-08-18T05:04:31.199Z,87.49
2018-08-18T05:05:31.194Z,87.49
2018-08-18T05:06:31.175Z,88.20
2018-08-18T05:07:31.165Z,87.49
2018-08-18T05:08:31.154Z,87.70
2018-08-18T05:09:31.140Z,86.79
2018-08-18T05:10:31.144Z,88.20
2018-08-18T05:11:31.166Z,88.00
2018-08-18T05:12:31.109Z,87.90
2018-08-18T05:13:31.098Z,87.90
2018-08-18T05:14:31.085Z,87.90
2018-08-18T05:15:31.089Z,88.00
2018-08-18T05:16:31.065Z,87.90
2018-08-18T05:17:31.105Z,87.90
2018-08-18T05:18:31.045Z,88.60
2018-08-18T05:19:31.033Z,88.00
2018-08-18T05:20:31.033Z,88.10
2018-08-18T05:21:31.014Z,88.60
2018-08-18T05:22:30.997Z,88.36
2018-08-18T05:23:30.988Z,88.00
2018-08-18T05:24:30.976Z,87.90
2018-08-18T05:25:30.985Z,87.60
2018-08-18T05:26:30.958Z,88.66
2018-08-18T05:27:30.943Z,88.36
2018-08-18T05:28:30.941Z,88.66
2018-08-18T05:29:30.921Z,88.36
2018-08-18T05:30:30.921Z,88.36
2018-08-18T05:31:30.902Z,88.16
2018-08-18T05:32:30.891Z,88.26
2018-08-18T05:33:30.883Z,88.46
2018-08-18T05:34:30.871Z,88.46
2018-08-18T05:35:30.869Z,88.16
2018-08-18T05:36:30.880Z,87.85
2018-08-18T05:37:30.834Z,87.76
2018-08-18T05:38:30.821Z,88.56
2018-08-18T05:39:30.811Z,87.85
2018-08-18T05:40:30.808Z,87.76
2018-08-18T05:41:30.793Z,88.06
2018-08-18T05:42:30.787Z,88.06
2018-08-18T05:43:30.767Z,87.96
2018-08-18T05:44:30.769Z,88.42
2018-08-18T05:45:30.758Z,87.92
2018-08-18T05:46:30.739Z,87.92
2018-08-18T05:47:30.777Z,87.82
2018-08-18T05:48:30.713Z,87.71
2018-08-18T05:49:30.722Z,88.02
2018-08-18T05:50:30.705Z,87.82
2018-08-18T05:51:30.676Z,87.71
2018-08-18T05:52:30.685Z,88.02
2018-08-18T05:53:30.656Z,88.02
2018-08-18T05:54:30.654Z,87.51
2018-08-18T05:55:30.643Z,87.31
2018-08-18T05:56:30.625Z,87.01
2018-08-18T05:57:30.615Z,87.27
2018-08-18T05:58:30.607Z,87.37
2018-08-18T05:59:30.588Z,87.57
2018-08-18T06:00:30.592Z,87.57
2018-08-18T06:01:30.566Z,86.57
2018-08-18T06:02:30.555Z,86.77
2018-08-18T06:03:30.546Z,86.46
2018-08-18T06:04:30.538Z,86.77
2018-08-18T06:05:30.543Z,87.37
2018-08-18T06:06:30.513Z,87.67
2018-08-18T06:07:30.514Z,87.87
2018-08-18T06:08:30.507Z,87.87
2018-08-18T06:09:30.482Z,87.53
2018-08-18T06:10:30.480Z,87.77
2018-08-18T06:11:30.457Z,87.77
2018-08-18T06:12:30.485Z,88.03
2018-08-18T06:13:30.435Z,87.33
2018-08-18T06:14:30.428Z,87.02
2018-08-18T06:15:30.434Z,86.93
2018-08-18T06:16:30.407Z,86.66
2018-08-18T06:17:30.391Z,86.52
2018-08-18T06:18:30.407Z,86.12
2018-08-18T06:19:30.367Z,86.12
2018-08-18T06:20:30.378Z,86.22
2018-08-18T06:21:30.354Z,85.92
2018-08-18T06:22:30.338Z,85.82
2018-08-18T06:23:30.325Z,85.42
2018-08-18T06:24:30.318Z,85.82
2018-08-18T06:25:30.315Z,85.82
2018-08-18T06:26:30.291Z,86.22
2018-08-18T06:27:30.281Z,86.32
2018-08-18T06:28:30.270Z,86.99
2018-08-18T06:29:30.256Z,86.28
2018-08-18T06:30:30.263Z,86.08
2018-08-18T06:31:30.236Z,85.38
2018-08-18T06:32:30.246Z,85.78
2018-08-18T06:33:30.218Z,85.28
2018-08-18T06:34:30.240Z,85.38
2018-08-18T06:35:30.217Z,85.48
2018-08-18T06:36:30.186Z,84.97
2018-08-18T06:37:30.192Z,85.08
2018-08-18T06:38:30.164Z,85.38
2018-08-18T06:39:30.148Z,85.28
2018-08-18T06:40:30.141Z,85.64
2018-08-18T06:41:30.219Z,85.24
2018-08-18T06:42:30.123Z,85.74
2018-08-18T06:43:30.104Z,84.94
2018-08-18T06:44:30.101Z,85.03
2018-08-18T06:45:30.087Z,85.14
2018-08-18T06:46:30.094Z,84.83
2018-08-18T06:47:30.078Z,85.53
2018-08-18T06:48:30.046Z,86.14
2018-08-18T06:49:30.037Z,85.33
2018-08-18T06:50:30.029Z,85.24
2018-08-18T06:51:30.026Z,85.84
2018-08-18T06:52:30.006Z,86.14
2018-08-18T06:53:29.997Z,85.94
2018-08-18T06:54:30.105Z,86.14
2018-08-18T06:55:29.973Z,85.53
2018-08-18T06:56:29.973Z,85.84
2018-08-18T06:57:29.948Z,85.94
2018-08-18T06:58:29.945Z,85.24
2018-08-18T06:59:29.926Z,84.89
2018-08-18T07:00:29.916Z,84.89
2018-08-18T07:01:29.919Z,85.10
2018-08-18T07:02:29.895Z,85.70
2018-08-18T07:03:29.887Z,85.80
2018-08-18T07:04:29.892Z,85.10
2018-08-18T07:05:29.876Z,85.60
2018-08-18T07:06:29.862Z,85.60
2018-08-18T07:07:29.837Z,85.10
2018-08-18T07:08:29.827Z,85.70
2018-08-18T07:09:29.819Z,85.60
2018-08-18T07:10:29.805Z,85.80
2018-08-18T07:11:29.806Z,86.10
2018-08-18T07:12:29.784Z,86.16
2018-08-18T07:13:29.772Z,85.75
2018-08-18T07:14:29.778Z,85.66
2018-08-18T07:15:29.749Z,85.56
2018-08-18T07:16:29.763Z,84.15
2018-08-18T07:17:29.729Z,84.05
2018-08-18T07:18:29.715Z,83.35
2018-08-18T07:19:29.747Z,83.31
2018-08-18T07:20:29.694Z,83.51
2018-08-18T07:21:29.697Z,83.81
2018-08-18T07:22:29.674Z,85.22
2018-08-18T07:23:29.660Z,84.91
2018-08-18T07:24:29.651Z,83.31
2018-08-18T07:25:29.641Z,84.01
2018-08-18T07:26:29.642Z,83.31
2018-08-18T07:27:29.626Z,82.81
2018-08-18T07:28:29.680Z,82.20
2018-08-18T07:29:29.604Z,80.90
2018-08-18T07:30:29.583Z,78.66
2018-08-18T07:31:29.583Z,78.55
2018-08-18T07:32:29.564Z,79.05
2018-08-18T07:33:29.551Z,80.46
2018-08-18T07:34:29.543Z,81.42
2018-08-18T07:35:29.529Z,80.96
2018-08-18T07:36:29.556Z,82.37
2018-08-18T07:37:29.569Z,81.16
2018-08-18T07:38:29.496Z,81.36
2018-08-18T07:39:29.498Z,81.56
2018-08-18T07:40:29.473Z,83.21
2018-08-18T07:41:29.473Z,83.41
2018-08-18T07:42:29.488Z,83.11
2018-08-18T07:43:29.438Z,81.30
2018-08-18T07:44:29.431Z,81.50
2018-08-18T07:45:29.425Z,82.10
2018-08-18T07:46:29.479Z,82.81
2018-08-18T07:47:29.398Z,83.37
2018-08-18T07:48:29.384Z,81.06
2018-08-18T07:49:29.377Z,81.96
2018-08-18T07:50:29.361Z,79.25
2018-08-18T07:51:29.363Z,79.25
2018-08-18T07:52:29.343Z,78.96
2018-08-18T07:53:29.354Z,79.46
2018-08-18T07:54:29.320Z,78.85
2018-08-18T07:55:29.306Z,78.85
2018-08-18T07:56:29.311Z,78.96
2018-08-18T07:57:29.286Z,78.85
2018-08-18T07:58:29.279Z,79.66
2018-08-18T07:59:29.267Z,79.75
2018-08-18T08:00:29.252Z,79.75
2018-08-18T08:01:29.336Z,81.26
2018-08-18T08:02:29.231Z,82.06
2018-08-18T08:03:29.218Z,81.46
2018-08-18T08:04:29.211Z,79.92
2018-08-18T08:05:29.223Z,79.05
2018-08-18T08:06:29.197Z,79.96
2018-08-18T08:07:29.175Z,80.16
2018-08-18T08:08:29.166Z,78.75
2018-08-18T08:09:29.154Z,77.85
2018-08-18T08:10:29.145Z,78.85
2018-08-18T08:11:29.147Z,78.85
2018-08-18T08:12:29.134Z,78.72
2018-08-18T08:13:29.113Z,78.22
2018-08-18T08:14:29.097Z,78.11
2018-08-18T08:15:29.094Z,76.71
2018-08-18T08:16:29.090Z,77.91
2018-08-18T08:17:29.066Z,78.11
2018-08-18T08:18:29.055Z,78.61
2018-08-18T08:19:29.042Z,77.72
2018-08-18T08:20:29.034Z,77.61
2018-08-18T08:21:29.035Z,77.41
2018-08-18T08:22:29.010Z,76.71
2018-08-18T08:23:28.999Z,75.81
2018-08-18T08:24:28.987Z,76.51
2018-08-18T08:25:28.978Z,78.02
2018-08-18T08:26:28.981Z,77.91
2018-08-18T08:27:28.954Z,77.91
2018-08-18T08:28:28.945Z,77.87
2018-08-18T08:29:28.955Z,76.87
2018-08-18T08:30:28.930Z,76.57
2018-08-18T08:31:28.930Z,76.47
2018-08-18T08:32:28.902Z,78.68
2018-08-18T08:33:28.890Z,77.44
2018-08-18T08:34:28.875Z,76.78
2018-08-18T08:35:28.890Z,76.14
2018-08-18T08:36:28.878Z,77.58
2018-08-18T08:37:28.846Z,76.64
2018-08-18T08:38:28.831Z,75.84
2018-08-18T08:39:28.824Z,75.17
2018-08-18T08:40:28.813Z,76.37
2018-08-18T08:41:28.809Z,77.48
2018-08-18T08:42:28.804Z,75.07
2018-08-18T08:43:28.806Z,76.37
2018-08-18T08:44:28.764Z,76.67
2018-08-18T08:45:28.791Z,76.28
2018-08-18T08:46:28.751Z,75.37
2018-08-18T08:47:28.744Z,76.28
2018-08-18T08:48:28.729Z,77.58
2018-08-18T08:49:28.713Z,76.07
2018-08-18T08:50:28.703Z,77.48
2018-08-18T08:51:28.690Z,76.78
2018-08-18T08:52:28.694Z,75.57
2018-08-18T08:53:28.704Z,76.14
2018-08-18T08:54:28.661Z,76.17
2018-08-18T08:55:28.644Z,75.23
2018-08-18T08:56:28.638Z,76.14
2018-08-18T08:57:28.635Z,74.03
2018-08-18T08:58:28.614Z,74.84
2018-08-18T08:59:28.600Z,75.43
2018-08-18T09:00:28.589Z,76.10
2018-08-18T09:01:28.670Z,74.80
2018-08-18T09:02:28.577Z,74.40
2018-08-18T09:03:28.557Z,74.70
2018-08-18T09:04:28.547Z,75.30
2018-08-18T09:05:28.544Z,75.40
2018-08-18T09:06:28.539Z,76.70
2018-08-18T09:07:28.524Z,75.76
2018-08-18T09:08:28.519Z,74.60
2018-08-18T09:09:28.495Z,75.00
2018-08-18T09:10:28.481Z,74.90
2018-08-18T09:11:28.470Z,74.80
2018-08-18T09:12:28.468Z,73.70
2018-08-18T09:13:28.446Z,73.60
2018-08-18T09:14:28.439Z,73.90
2018-08-18T09:15:28.423Z,73.90
2018-08-18T09:16:28.412Z,73.50
2018-08-18T09:17:28.414Z,75.70
2018-08-18T09:18:28.389Z,75.40
2018-08-18T09:19:28.379Z,73.50
2018-08-18T09:20:28.372Z,74.80
2018-08-18T09:21:28.360Z,75.10
2018-08-18T09:22:28.359Z,72.80
2018-08-18T09:23:28.337Z,74.10
2018-08-18T09:24:28.324Z,73.46
2018-08-18T09:25:28.313Z,73.56
2018-08-18T09:26:28.405Z,73.19
2018-08-18T09:27:28.323Z,73.56
2018-08-18T09:28:28.289Z,73.36
2018-08-18T09:29:28.276Z,72.80
2018-08-18T09:30:28.258Z,72.39
2018-08-18T09:31:28.260Z,72.80
2018-08-18T09:32:28.336Z,73.60
2018-08-18T09:33:28.227Z,73.50
2018-08-18T09:34:28.214Z,74.70
2018-08-18T09:35:28.203Z,74.70
2018-08-18T09:36:28.194Z,74.80
2018-08-18T09:37:28.229Z,75.00
2018-08-18T09:38:28.171Z,75.10
2018-08-18T09:39:28.160Z,74.70
2018-08-18T09:40:28.158Z,74.84
2018-08-18T09:41:28.152Z,75.74
2018-08-18T09:42:28.139Z,77.74
2018-08-18T09:43:28.115Z,75.84
2018-08-18T09:44:28.105Z,75.13
2018-08-18T09:45:28.165Z,74.93
2018-08-18T09:46:28.088Z,76.24
2018-08-18T09:47:28.083Z,74.84
2018-08-18T09:48:28.064Z,76.04
2018-08-18T09:49:28.049Z,76.04
2018-08-18T09:50:28.037Z,76.14
2018-08-18T09:51:28.026Z,75.43
2018-08-18T09:52:28.029Z,75.20
2018-08-18T09:53:28.010Z,75.00
2018-08-18T09:54:27.994Z,73.39
2018-08-18T09:55:27.989Z,73.93
2018-08-18T09:56:27.987Z,73.60
2018-08-18T09:57:27.981Z,73.39
2018-08-18T09:58:27.950Z,74.10
2018-08-18T09:59:27.963Z,74.70
2018-08-18T10:00:27.929Z,75.00
2018-08-18T10:01:27.919Z,73.00
2018-08-18T10:02:27.916Z,74.76
2018-08-18T10:03:27.894Z,74.26
2018-08-18T10:04:27.897Z,75.16
2018-08-18T10:05:27.876Z,74.56
2018-08-18T10:06:27.944Z,73.76
2018-08-18T10:07:27.866Z,73.56
2018-08-18T10:08:27.838Z,72.42
2018-08-18T10:09:27.828Z,73.72
2018-08-18T10:10:27.823Z,71.76
2018-08-18T10:11:27.806Z,73.63
2018-08-18T10:12:27.806Z,73.63
2018-08-18T10:13:27.783Z,73.13
2018-08-18T10:14:27.773Z,72.53
2018-08-18T10:15:27.900Z,72.92
2018-08-18T10:16:27.753Z,72.63
2018-08-18T10:17:27.773Z,73.03
2018-08-18T10:18:27.729Z,73.53
2018-08-18T10:19:27.722Z,72.99
2018-08-18T10:20:27.707Z,73.72
2018-08-18T10:21:27.695Z,73.79
2018-08-18T10:22:27.697Z,71.69
2018-08-18T10:23:27.675Z,72.39
2018-08-18T10:24:27.670Z,73.19
2018-08-18T10:25:27.834Z,73.09
2018-08-18T10:26:27.883Z,72.42
2018-08-18T10:27:27.745Z,73.19
2018-08-18T10:28:27.703Z,72.89
2018-08-18T10:29:27.794Z,71.79
2018-08-18T10:30:27.599Z,73.69
2018-08-18T10:31:27.585Z,69.89
2018-08-18T10:32:32.833Z,70.16
2018-08-18T10:33:27.661Z,70.86
2018-08-18T10:34:27.557Z,71.66
2018-08-18T10:35:27.677Z,70.66
2018-08-18T10:36:27.532Z,70.36
2018-08-18T10:37:27.532Z,69.96
2018-08-18T10:38:27.516Z,71.46
2018-08-18T10:39:27.524Z,69.56
2018-08-18T10:40:27.491Z,70.36
2018-08-18T10:41:27.474Z,72.16
2018-08-18T10:42:27.471Z,71.96
2018-08-18T10:43:27.481Z,70.26
2018-08-18T10:44:27.442Z,68.46
2018-08-18T10:45:27.587Z,68.86
2018-08-18T10:46:27.421Z,71.56
2018-08-18T10:47:27.689Z,71.36
2018-08-18T10:48:27.488Z,70.36
2018-08-18T10:49:27.388Z,68.76
2018-08-18T10:50:27.377Z,68.63
2018-08-18T10:51:27.647Z,67.83
2018-08-18T10:52:27.428Z,69.13
2018-08-18T10:53:27.354Z,68.99
2018-08-18T10:54:27.333Z,68.13
2018-08-18T10:55:27.326Z,68.13
2018-08-18T10:56:27.311Z,67.43
2018-08-18T10:57:27.317Z,69.39
2018-08-18T10:58:27.306Z,69.09
2018-08-18T10:59:27.277Z,67.72
2018-08-18T11:00:27.332Z,68.40
2018-08-18T11:01:27.273Z,66.39
2018-08-18T11:02:27.247Z,65.60
2018-08-18T11:03:27.246Z,68.10
2018-08-18T11:04:27.223Z,67.80
2018-08-18T11:05:27.304Z,67.30
2018-08-18T11:06:27.313Z,67.60
2018-08-18T11:07:27.193Z,68.19
2018-08-18T11:08:27.194Z,67.90
2018-08-18T11:09:27.172Z,70.16
2018-08-18T11:10:27.158Z,67.99
2018-08-18T11:11:27.146Z,67.30
2018-08-18T11:12:27.137Z,67.30
2018-08-18T11:13:27.153Z,67.19
2018-08-18T11:14:27.118Z,68.79
2018-08-18T11:15:27.102Z,70.16
2018-08-18T11:16:27.094Z,69.46
2018-08-18T11:17:27.080Z,68.36
2018-08-18T11:18:27.084Z,66.96
2018-08-18T11:19:27.058Z,68.46
2018-08-18T11:20:27.056Z,67.26
2018-08-18T11:21:27.038Z,67.57
2018-08-18T11:22:27.027Z,68.36
2018-08-18T11:23:27.027Z,66.17
2018-08-18T11:24:27.006Z,66.56
2018-08-18T11:25:26.996Z,68.06
2018-08-18T11:26:26.983Z,67.83
2018-08-18T11:27:26.975Z,66.73
2018-08-18T11:28:27.044Z,66.43
2018-08-18T11:29:26.951Z,66.13
2018-08-18T11:30:26.939Z,66.13
2018-08-18T11:31:26.928Z,67.83
2018-08-18T11:32:26.916Z,67.63
2018-08-18T11:33:26.919Z,68.33
2018-08-18T11:34:26.893Z,68.26
2018-08-18T11:35:26.884Z,67.57
2018-08-18T11:36:26.874Z,65.77
2018-08-18T11:37:26.863Z,68.10
2018-08-18T11:38:26.866Z,66.80
2018-08-18T11:39:26.841Z,68.29
2018-08-18T11:40:26.835Z,67.49
2018-08-18T11:41:26.869Z,66.93
2018-08-18T11:42:26.807Z,66.23
2018-08-18T11:43:26.808Z,66.43
2018-08-18T11:44:26.785Z,67.43
2018-08-18T11:45:26.775Z,67.13
2018-08-18T11:46:26.766Z,67.23
2018-08-18T11:47:26.755Z,66.43
2018-08-18T11:48:26.754Z,67.60
2018-08-18T11:49:26.733Z,68.03
2018-08-18T11:50:26.720Z,68.52
2018-08-18T11:51:26.711Z,69.09
2018-08-18T11:52:26.697Z,67.93
2018-08-18T11:53:26.698Z,66.09
2018-08-18T11:54:26.675Z,68.10
2018-08-18T11:55:26.670Z,67.19
2018-08-18T11:56:26.655Z,66.80
2018-08-18T11:57:26.641Z,68.40
2018-08-18T11:58:26.644Z,67.99
2018-08-18T11:59:26.624Z,67.60
2018-08-18T12:00:26.611Z,67.60
2018-08-18T12:01:26.604Z,67.90
2018-08-18T12:02:26.588Z,66.39
2018-08-18T12:03:26.590Z,66.30
2018-08-18T12:04:26.566Z,66.70
2018-08-18T12:05:26.555Z,67.80
2018-08-18T12:06:26.546Z,66.50
2018-08-18T12:07:26.534Z,66.60
2018-08-18T12:08:26.531Z,67.69
2018-08-18T12:09:26.528Z,67.10
2018-08-18T12:10:26.536Z,67.10
2018-08-18T12:11:26.491Z,66.80
2018-08-18T12:12:26.479Z,68.10
2018-08-18T12:13:26.482Z,67.00
2018-08-18T12:14:26.459Z,66.50
2018-08-18T12:15:26.445Z,67.10
2018-08-18T12:16:26.446Z,67.33
2018-08-18T12:17:26.424Z,68.70
2018-08-18T12:18:26.451Z,68.10
2018-08-18T12:19:26.400Z,66.60
2018-08-18T12:20:26.402Z,66.53
2018-08-18T12:21:26.380Z,67.90
2018-08-18T12:22:26.382Z,68.79
2018-08-18T12:23:26.367Z,68.40
2018-08-18T12:24:26.349Z,66.00
2018-08-18T12:25:26.335Z,68.89
2018-08-18T12:26:26.325Z,68.19
2018-08-18T12:27:26.320Z,67.80
2018-08-18T12:28:26.315Z,68.29
2018-08-18T12:29:26.419Z,68.79
2018-08-18T12:30:26.285Z,68.49
2018-08-18T12:31:26.272Z,68.19
2018-08-18T12:32:26.264Z,69.20
2018-08-18T12:33:26.262Z,69.46
2018-08-18T12:34:26.242Z,69.59
2018-08-18T12:35:26.230Z,68.96
2018-08-18T12:36:26.295Z,68.26
2018-08-18T12:37:26.233Z,69.76
2018-08-18T12:38:26.207Z,68.03
2018-08-18T12:39:26.185Z,68.16
2018-08-18T12:40:26.172Z,67.63
2018-08-18T12:41:26.164Z,66.63
2018-08-18T12:42:26.153Z,66.96
2018-08-18T12:43:26.211Z,67.03
2018-08-18T12:44:26.128Z,66.83
2018-08-18T12:45:26.117Z,67.23
2018-08-18T12:46:26.110Z,66.13
2018-08-18T12:47:26.102Z,68.36
2018-08-18T12:48:26.117Z,69.02
2018-08-18T12:49:26.080Z,68.73
2018-08-18T12:50:26.063Z,67.93
2018-08-18T12:51:26.053Z,65.53
2018-08-18T12:52:26.040Z,66.56
2018-08-18T12:53:26.032Z,66.96
2018-08-18T12:54:26.029Z,69.16
2018-08-18T12:55:26.008Z,68.36
2018-08-18T12:56:25.997Z,66.53
2018-08-18T12:57:25.992Z,67.36
2018-08-18T12:58:26.161Z,68.53
2018-08-18T12:59:25.976Z,69.82
2018-08-18T13:00:25.959Z,70.03
2018-08-18T13:01:25.941Z,69.73
2018-08-18T13:02:25.934Z,68.33
2018-08-18T13:03:25.929Z,67.83
2018-08-18T13:04:26.002Z,68.13
2018-08-18T13:05:25.900Z,69.02
2018-08-18T13:06:25.888Z,68.43
2018-08-18T13:07:25.880Z,68.73
2018-08-18T13:08:25.867Z,70.62
2018-08-18T13:09:25.869Z,69.82
2018-08-18T13:10:25.844Z,69.43
2018-08-18T13:11:25.845Z,66.24
2018-08-18T13:12:25.822Z,66.43
2018-08-18T13:13:25.812Z,66.33
2018-08-18T13:14:25.854Z,65.14
2018-08-18T13:15:25.808Z,67.20
2018-08-18T13:16:25.779Z,66.10
2018-08-18T13:17:25.768Z,66.80
2018-08-18T13:18:25.760Z,66.60
2018-08-18T13:19:25.761Z,65.04
2018-08-18T13:20:25.734Z,64.94
2018-08-18T13:21:25.727Z,65.53
2018-08-18T13:22:25.715Z,66.13
2018-08-18T13:23:25.703Z,66.43
2018-08-18T13:24:25.703Z,67.03
2018-08-18T13:25:25.684Z,66.83
2018-08-18T13:26:25.729Z,67.10
2018-08-18T13:27:25.662Z,66.13
2018-08-18T13:28:25.647Z,65.73
2018-08-18T13:29:25.649Z,66.43
2018-08-18T13:30:25.626Z,66.43
2018-08-18T13:31:25.621Z,66.43
2018-08-18T13:32:25.614Z,66.24
2018-08-18T13:33:25.594Z,65.94
2018-08-18T13:34:25.593Z,65.83
2018-08-18T13:35:25.579Z,66.63
2018-08-18T13:36:25.563Z,67.13
2018-08-18T13:37:25.550Z,66.53
2018-08-18T13:38:25.539Z,65.64
2018-08-18T13:39:25.538Z,66.13
2018-08-18T13:40:25.548Z,67.53
2018-08-18T13:41:25.504Z,67.53
2018-08-18T13:42:25.496Z,67.63
2018-08-18T13:43:25.484Z,67.43
2018-08-18T13:44:25.486Z,66.24
2018-08-18T13:45:25.463Z,65.14
2018-08-18T13:46:25.452Z,66.43
2018-08-18T13:47:25.441Z,66.73
2018-08-18T13:48:25.430Z,66.03
2018-08-18T13:49:25.515Z,66.73
2018-08-18T13:50:25.407Z,68.03
2018-08-18T13:51:25.399Z,68.70
2018-08-18T13:52:25.387Z,66.43
2018-08-18T13:53:25.376Z,66.13
2018-08-18T13:54:25.374Z,67.40
2018-08-18T13:55:25.353Z,66.30
2018-08-18T13:56:25.341Z,65.41
2018-08-18T13:57:25.332Z,66.40
2018-08-18T13:58:25.322Z,66.60
2018-08-18T13:59:25.320Z,66.10
2018-08-18T14:00:25.299Z,67.10
2018-08-18T14:01:25.287Z,67.00
2018-08-18T14:02:25.277Z,65.31
2018-08-18T14:03:25.265Z,66.10
2018-08-18T14:04:25.431Z,66.30
2018-08-18T14:05:25.244Z,66.60
2018-08-18T14:06:25.239Z,65.41
2018-08-18T14:07:25.222Z,65.91
2018-08-18T14:08:25.211Z,66.00
2018-08-18T14:09:25.213Z,65.80
2018-08-18T14:10:25.188Z,67.10
2018-08-18T14:11:25.177Z,65.91
2018-08-18T14:12:25.168Z,66.60
2018-08-18T14:13:25.157Z,66.60
2018-08-18T14:14:25.159Z,65.97
2018-08-18T14:15:25.134Z,66.17
2018-08-18T14:16:25.124Z,65.80
2018-08-18T14:17:25.121Z,66.80
2018-08-18T14:18:25.113Z,66.40
2018-08-18T14:19:25.109Z,66.40
2018-08-18T14:20:25.080Z,66.40
2018-08-18T14:21:25.068Z,67.20
2018-08-18T14:22:25.063Z,66.10
2018-08-18T14:23:25.059Z,66.80
2018-08-18T14:24:25.047Z,67.50
2018-08-18T14:25:25.024Z,66.70
2018-08-18T14:26:25.012Z,66.90
2018-08-18T14:27:25.026Z,67.50
2018-08-18T14:28:25.050Z,68.70
2018-08-18T14:29:24.993Z,67.80
2018-08-18T14:30:24.968Z,67.50
2018-08-18T14:31:24.958Z,68.00
2018-08-18T14:32:24.948Z,68.99
2018-08-18T14:33:24.936Z,68.79
2018-08-18T14:34:24.962Z,73.28
2018-08-18T14:35:24.915Z,72.02
2018-08-18T14:36:24.910Z,71.92
2018-08-18T14:37:24.894Z,72.35
2018-08-18T14:38:24.881Z,73.58
2018-08-18T14:39:24.882Z,73.42
2018-08-18T14:40:24.867Z,73.22
2018-08-18T14:41:24.852Z,72.22
2018-08-18T14:42:24.859Z,71.83
2018-08-18T14:43:24.829Z,76.62
2018-08-18T14:44:24.829Z,77.22
2018-08-18T14:45:24.808Z,77.25
2018-08-18T14:46:24.801Z,76.86
2018-08-18T14:47:24.783Z,75.26
2018-08-18T14:48:24.771Z,73.06
2018-08-18T14:49:24.786Z,76.06
2018-08-18T14:50:24.752Z,71.96
2018-08-18T14:51:24.740Z,73.36
2018-08-18T14:52:24.728Z,75.56
2018-08-18T14:53:25.450Z,73.96
2018-08-18T14:54:24.766Z,73.86
2018-08-18T14:55:24.708Z,72.96
2018-08-18T14:56:24.687Z,73.75
2018-08-18T14:57:24.674Z,73.36
2018-08-18T14:58:25.901Z,73.46
2018-08-18T14:59:24.653Z,75.26
2018-08-18T15:00:24.651Z,74.46
2018-08-18T15:01:24.630Z,74.85
2018-08-18T15:02:24.617Z,73.25
2018-08-18T15:03:24.608Z,75.26
2018-08-18T15:04:24.684Z,73.69
2018-08-18T15:05:24.595Z,74.76
2018-08-18T15:06:24.576Z,73.66
2018-08-18T15:07:24.565Z,72.66
2018-08-18T15:08:24.557Z,73.46
2018-08-18T15:09:24.542Z,75.56
2018-08-18T15:10:24.543Z,74.96
2018-08-18T15:11:24.522Z,73.16
2018-08-18T15:12:24.509Z,73.66
2018-08-18T15:13:24.529Z,75.46
2018-08-18T15:14:24.492Z,73.66
2018-08-18T15:15:24.529Z,73.25
2018-08-18T15:16:24.466Z,75.35
2018-08-18T15:17:24.518Z,72.06
2018-08-18T15:18:24.444Z,71.16
2018-08-18T15:19:24.440Z,74.55
2018-08-18T15:20:24.432Z,72.45
2018-08-18T15:21:24.412Z,73.02
2018-08-18T15:22:24.399Z,73.02
2018-08-18T15:23:24.406Z,74.46
2018-08-18T15:24:25.323Z,73.75
2018-08-18T15:25:24.377Z,74.96
2018-08-18T15:26:24.358Z,71.96
2018-08-18T15:27:24.347Z,70.83
2018-08-18T15:28:24.332Z,70.03
2018-08-18T15:29:24.323Z,70.83
2018-08-18T15:30:24.321Z,69.93
2018-08-18T15:31:24.302Z,70.03
2018-08-18T15:32:24.291Z,71.62
2018-08-18T15:33:24.287Z,72.62
2018-08-18T15:34:24.270Z,73.42
2018-08-18T15:35:24.271Z,73.72
2018-08-18T15:36:24.246Z,72.09
2018-08-18T15:37:24.237Z,73.52
2018-08-18T15:38:24.224Z,71.89
2018-08-18T15:39:24.222Z,72.29
2018-08-18T15:40:24.213Z,73.42
2018-08-18T15:41:24.192Z,72.92
2018-08-18T15:42:24.179Z,71.79
2018-08-18T15:43:24.170Z,71.22
2018-08-18T15:44:24.158Z,71.83
2018-08-18T15:45:24.157Z,72.78
2018-08-18T15:46:24.143Z,73.72
2018-08-18T15:47:24.125Z,75.32
2018-08-18T15:48:24.121Z,74.82
2018-08-18T15:49:24.102Z,74.42
2018-08-18T15:50:24.103Z,76.92
2018-08-18T15:51:24.083Z,73.52
2018-08-18T15:52:24.071Z,72.32
2018-08-18T15:53:24.068Z,71.72
2018-08-18T15:54:24.129Z,70.53
2018-08-18T15:55:24.051Z,71.33
2018-08-18T15:56:24.027Z,71.03
2018-08-18T15:57:24.016Z,71.03
2018-08-18T15:58:24.003Z,71.12
2018-08-18T15:59:23.992Z,71.22
2018-08-18T16:00:23.990Z,73.88
2018-08-18T16:01:23.981Z,71.72
2018-08-18T16:02:23.964Z,70.49
2018-08-18T16:03:25.235Z,72.29
2018-08-18T16:04:25.196Z,73.69
2018-08-18T16:05:23.971Z,74.68
2018-08-18T16:06:23.918Z,72.59
2018-08-18T16:07:23.904Z,74.88
2018-08-18T16:08:23.897Z,75.09
2018-08-18T16:09:23.894Z,74.49
2018-08-18T16:10:23.882Z,73.58
2018-08-18T16:11:23.862Z,74.52
2018-08-18T16:12:23.932Z,74.02
2018-08-18T16:13:23.841Z,74.72
2018-08-18T16:14:23.827Z,74.92
2018-08-18T16:15:23.831Z,73.72
2018-08-18T16:16:23.806Z,72.72
2018-08-18T16:17:23.798Z,74.42
2018-08-18T16:18:23.784Z,72.13
2018-08-18T16:19:23.774Z,71.72
2018-08-18T16:20:23.772Z,75.82
2018-08-18T16:21:23.752Z,75.82
2018-08-18T16:22:23.743Z,77.92
2018-08-18T16:23:23.731Z,71.42
2018-08-18T16:24:23.718Z,71.12
2018-08-18T16:25:23.717Z,73.22
2018-08-18T16:26:23.699Z,71.12
2018-08-18T16:27:23.684Z,74.49
2018-08-18T16:28:23.674Z,74.58
2018-08-18T16:29:23.662Z,71.89
2018-08-18T16:30:23.664Z,73.28
2018-08-18T16:31:23.642Z,72.39
2018-08-18T16:32:23.629Z,70.53
2018-08-18T16:33:23.622Z,71.29
2018-08-18T16:34:23.612Z,73.19
2018-08-18T16:35:23.621Z,73.58
2018-08-18T16:36:23.586Z,74.68
2018-08-18T16:37:23.576Z,76.12
2018-08-18T16:38:23.733Z,72.59
2018-08-18T16:39:23.553Z,71.52
2018-08-18T16:40:23.800Z,73.28
2018-08-18T16:41:23.533Z,73.82
2018-08-18T16:42:23.521Z,75.22
2018-08-18T16:43:23.517Z,76.12
2018-08-18T16:44:23.610Z,75.12
2018-08-18T16:45:23.713Z,75.32
2018-08-18T16:46:23.478Z,77.12
2018-08-18T16:47:23.469Z,77.12
2018-08-18T16:48:23.601Z,76.62
2018-08-18T16:49:23.446Z,76.32
2018-08-18T16:50:23.445Z,77.02
2018-08-18T16:51:23.426Z,77.42
2018-08-18T16:52:23.419Z,78.42